Timeline UpdatesTrip UpdatesNews PostsPvt PostsTravel TipsAdmin PostsConv PostsFollowed PostsChat RequestsBlog PostsPNR Posts

Disclaimer
Search
 
 
Tue Jul 29, 2014 18:15:40 ISTHomeTrainsΣChainsAtlasPNRForumGalleryNewsFAQTripsMembersLoginFeedback
No Recent News for this Train
Other Trains in the News **new
Latest...
ECoR TO CANCEL LOCAL PASSENGER TRAINS IN VIEW OF EXPECTED CYCLONE o­n 12th October 2013. The following trains are: 58417/58418 Puri-Gunupur-Puri passenger
Sat Oct 12, 2013 (09:32AM)
⇐ Return Journey: Train# 58418

58417/Puri Gunupur Passenger (UnReserved)

Aug 04 2013 (5:19PM)
Change Departure Station:
Change Arrival Station:
Post a Train Travel TipPost a Train Travel Tip **new
Post a Comment/Question/Picture/VideoPost a Comment/Question/Picture/Video
Pantry/Catering
✕ NO Pantry Car
✕ NO Catering
Loco/Rake Reversals
KUR/Khurda Road Junction (7);
RSA - Rake Sharing
Rake/Coach Composition
This train will run with 08 coaches i.e. Two Guard cum luggage vans, 05 General Second Class coaches and One Parcel Van.
Loco
News    PNR    Forum    Time-Table    Availability    Fare Chart    Map    Arr/Dep History    Trips    Gallery    ΣChains    X/O    Timeline    
Travel Time: 1h 20m    9 halts    Distance: 44 km    Avg Speed: 33 km/hr
Type: Passenger
Zone: ECoR/East Coast
Departs @ 08:30 (Avg 3m late)
Platform# ???
SMTWTFS
Puri/PURI 
Arrives @ 09:50 (Avg 9m late)
Platform# ???
SMTWTFS
Khurda Road Junction/KUR 

9 halts. 9 intermediate Stations between Puri and Khurda Road Junction

Show ALL intermediate Stations  Show Old Time-Table

#CodeStation NameX/OArrivesAvgDepartsAvgHaltPFDay#KmSpeedElevZoneAddress
1PURI»Puri (5)»  -08:30+3--10.03712mECoRPuri, Odisha
2MLTMalatipatpur (1)X  08:42+808:44+82m117.34615mECoRPuri, Odisha
3JKDPJankidaipur  08:48+508:49+51m--110.46013mECoRChandanpur, Odisha
4SILSakhi Gopal (3)X  08:55+1008:56+101m--116.46710mECoRPuri, Odisha
5BRSTBir Purushottampur  09:01+1409:02+141m--122.04512mECoRSatasankha, Odisha
6JPRDJenapur Road  09:07-09:08-1m--125.73610mECoRKhordha, Odisha
7DEGDelang  09:13+1609:14+171m--128.7449mECoRKhordha, Odisha
8KASRKanas RoadX  09:19+1309:20+131m--132.4429mECoRKhordha, Odisha
9MWQMotari Halt  09:25+1709:26+171m--135.94612mECoRMotari, Odisha
10HPGMHaripur GramX  09:33+1009:34+101m--141.31022mECoRKhordha, Odisha
11KUR•Khurda Road Junction (7)•X09:50+910:10+4220m--143.95325mECoRKhordha, Odisha
12ARGLArgul P.H.  10:16+1:0710:17+1:071m--149.24024mECoRKhordha, Odisha
13KPXRKaipadar RoadX  10:23+5310:24+591m--153.26822mECoRKaipada Road, Odisha
14DLMHDhaulimuhanX  10:28+1:0810:29+1:081m--157.74621mECoRKhordha, Odisha
15TAPTapangX  10:34+1:0110:35+1:031m--161.67215mECoRKhordha, Odisha
16GLBAGolabaiO  10:39+1:0810:40+1:081m--166.44813mECoRKhordha, Odisha
17NKPNirakarpurX  10:45+1:0310:46+1:041m--170.37121mECoRNirakarpur, Odisha
18BSDPBhusandpur  10:52+1:0610:53+1:061m--177.46620mECoRBhushandapur, Odisha
19MKTPMuketashwarX  10:58+1:1610:59+1:161m--182.95213mECoRKhordha, Odisha
20KAPGKalupara Ghat  11:04+1:0811:05+1:101m--187.36710mECoRChandeswar, Odisha
21KUUKuhuri  11:11+1:1311:12+1:131m--194.06826mECoRKhordha, Odisha
22GNGDGangadharpur  11:19+1:1211:20+1:161m--1102.06222mECoRKhordha, Odisha
23SLZSolari  11:25+1:2111:26+1:211m--1107.15218mECoRSolari, Odisha
24BALUBalugaon (3)X  11:35+1:1011:40+1:105m--1115.07211mECoR752030, Odisha
25CLKAChilka  11:46+1:2411:47+1:251m--1122.27725mECoRBarkul, Odisha
26KLJIKalijai  11:51+1:3511:52+1:351m--1127.45811mECoRGarh, Odisha
27KITKhallikot (3)X  11:57+1:3611:58+1:391m--1132.27513mECoRKhallikot, Odisha
28RBARambha  12:07+1:4112:08+1:451m--1143.47414mECoRGanjam District, Odisha
29HMAHumma  12:17+1:4712:18+1:481m--1154.47519mECoRGanjam District, Odisha
30GAMGanjam  12:23+1:5212:24+1:541m--1160.7608mECoRGanjam, Odisha
31CAPCChatrapur Court (2)  12:32+1:4312:33+1:431m--1168.71432mECoRChatrapur, Odisha
32CAPChatrapurX  12:37+1:3212:42+1:315m--1169.63736mECoRChatrapur, Odisha
33NRSPNarasimhapuraX  12:48+1:4512:49+1:451m--1173.310850mECoRGanjam, Odisha
34JNPJagan Nathapur  12:54+1:5812:55+1:591m--1182.35229mECoRBerhampur, Odisha
35BAMBrahmapur (3)  13:05+1:1513:15+1:1710m21191.07127mECoRBerhampur, Odisha
36GTAGolanthra  13:24+2:1013:25+2:151m--1201.75328mECoRGanjam, Odisha
37SLRDSurla Road  13:31+2:1713:33+2:162m--1207.16318mECoRGanjam, Odisha
38IPMIchchapuram  13:41+2:1913:42+2:221m--1215.57921mECoRIchchapuram, Andhra Pradesh
39JPIJhadupudi  13:51+2:2413:52+2:241m--1227.37538mECoRSrikakulam, Andhra Pradesh
40SPTSompeta (4)X  13:57+1:3113:58+1:321m--1233.56348mECoRKanchili, Andhra Pradesh
41BAVBaruva  14:07+2:2614:08+2:261m--1242.98117mECoRSrikakulam, Andhra Pradesh
42MMSMandasa Road  14:15+2:3714:16+2:371m--1252.35638mECoRSrikakulam, Andhra Pradesh
43SUDVSummadeviX  14:23+2:3914:24+2:391m--1258.8658mECoRSummadevi, Andhra Pradesh
44PSAPalasa (3)O  15:25+1:2616:00+1:2835m31265.46131mECoRKasibugga, Andhra Pradesh
45PUNPundiX  16:12+1:5116:14+1:512m--1277.65438mECoRSrikakulam, Andhra Pradesh
46RMZRouthpuram HaltX  16:21+1:5616:22+1:561m--1283.93312mECoRSrikakulam, Andhra Pradesh
47NWPNaupada Junction  16:35+1:5616:45+1:5110m--1291.13913mECoRNuapada . ph.no. 08945-249728, Andhra Pradesh
48TEKTekkali Halt  16:55+2:2216:56+2:221m--1297.73436mECoRTekkali, Andhra Pradesh
49PDSNPeddasana  17:05+1:5017:06+1:501m--1302.84226mECoRNational Highway 5, Andhra Pradesh
50TMBTemburu  17:19+1:5017:20+1:501m--1311.93276mECoRParalakhemundi, Andhra Pradesh
51GVAGanguwada  17:28+1:5017:29+1:501m--1316.24278mECoRGanguwada, Andhra Pradesh
52PHMPatapatnam  17:43+1:4917:44+1:491m--1326.01668mECoRSrikakulam District, Andhra Pradesh
53PLHParlakhemundi (1)  18:00+1:4218:02+1:422m11330.43760mECoRParalakhemundi, Odisha
54SPRMSitapuram Halt  18:22+1:3918:23+1:391m--1342.83258mECoRParalakhemundi, Odisha
55HBFHadobhangi Halt  18:31+1:3918:32+1:391m--1347.23968mECoRParalakhemundi, Odisha
56KNGRKashinagar Halt  18:45+1:3918:46+1:391m--1355.63762mECoRKashinagar, Odisha
57LRILihuri Halt  18:57+1:3918:58+1:391m--1362.43969mECoRAcross River Vamsadhara, Odisha
58BSDRBansadhara Halt  19:09+1:3919:10+1:391m--1369.53678mECoRBansadhara Halt Railway Station, Odisha
59PLSGPalasingi  19:19+1:3919:20+1:391m--1374.81587mECoRDistt Gajapati, Odisha
60GNPRGunupur  19:45+1:12---1381.2-92mECoRGunupur, Odisha
Scroll to Top
Scroll to Bottom